Albert Maersk — OUOW2 — position and weather

sailwx.info

Track history (hours):
 
Tides and Currents Weather Stations Pressure Air Temp Water Temp Dewpoint Dewpoint Depression Visibility Wind Speed Wind Dir Waves Ship Positions

Albert Maersk

Last reported at 2016-Aug-22 06:32 UTC. Time now 2016-Aug-29 23:30 UTC.
Position N 01°15' E 103°44'.

MMSI: 220259928.

Date/timePositionNaut miles runAvg speedWind from/ knotsBaromVisibWave heightAir tempDewpointWater temp
2016-Aug-22 06:32N 01°15' E 103°44'3 2.4
2016-Aug-22 05:29N 01°16' E 103°46'0 0.0
2016-Aug-22 04:17N 01°16' E 103°46'0 0.0
2016-Aug-22 03:29N 01°16' E 103°46'0 0.0
2016-Aug-21 22:29N 01°16' E 103°46'0 0.0
2016-Aug-21 21:23N 01°16' E 103°46'0 0.0
2016-Aug-21 20:05N 01°16' E 103°46'0 0.0
2016-Aug-21 19:32N 01°16' E 103°46'0 0.0
2016-Aug-21 18:29N 01°16' E 103°46'0 0.0
2016-Aug-21 17:23N 01°16' E 103°46'0 0.0
2016-Aug-21 16:20N 01°16' E 103°46'0 0.0
2016-Aug-21 15:23N 01°16' E 103°46'0 0.0
2016-Aug-21 13:32N 01°16' E 103°46'0 0.0
2016-Aug-21 12:29N 01°16' E 103°46'0 0.0
2016-Aug-21 11:23N 01°16' E 103°46'0 0.0
2016-Aug-21 10:32N 01°16' E 103°46'0 0.0
2016-Aug-21 09:29N 01°16' E 103°46'0 0.0
2016-Aug-21 08:29N 01°16' E 103°46'0 0.0
2016-Aug-21 07:26N 01°16' E 103°46'0 0.0
2016-Aug-21 06:32N 01°16' E 103°46'1 1.2
2016-Aug-21 05:33N 01°15' E 103°47'8 7.8
2016-Aug-21 04:33N 01°14' E 103°54'1010.0
2016-Aug-21 03:33N 01°16' E 104°04'  
2016-Aug-15 23:33N 22°34' E 114°16'0 0.0
2016-Aug-15 22:33N 22°34' E 114°16'0 0.1
2016-Aug-15 21:33N 22°34' E 114°16'0 0.0
2016-Aug-15 20:33N 22°34' E 114°16'9 4.3
2016-Aug-15 18:30N 22°32' E 114°25'22 5.6
2016-Aug-15 14:33N 22°20' E 114°05'1111.1
2016-Aug-15 13:33N 22°24' E 113°53'5 2.5
2016-Aug-15 11:25N 22°29' E 113°52'0 0.0
2016-Aug-15 10:22N 22°29' E 113°52'0 0.0
2016-Aug-15 09:04N 22°29' E 113°52'0 0.0
2016-Aug-15 08:25N 22°29' E 113°52'0 0.0
2016-Aug-15 06:28N 22°29' E 113°52'0 0.0
2016-Aug-15 04:31N 22°29' E 113°52'0 0.0
2016-Aug-15 03:25N 22°29' E 113°52'0 0.0
2016-Aug-15 02:22N 22°29' E 113°52'0 0.0
2016-Aug-15 01:23N 22°29' E 113°52'3 3.5
2016-Aug-15 00:33N 22°26' E 113°53'8 7.4
2016-Aug-14 23:27N 22°21' E 113°59'1011.4
2016-Aug-14 22:34N 22°15' E 114°08'25316.6
2016-Aug-14 07:17N 23°53' E 118°21'1620.1
2016-Aug-14 06:29N 24°04' E 118°34'39518.0
2016-Aug-13 08:33N 29°42' E 122°23'1212.3
2016-Aug-13 07:33N 29°51' E 122°12'9 8.3
2016-Aug-13 06:30N 29°53' E 122°03'0 0.0
2016-Aug-13 04:15N 29°53' E 122°03'0 0.0
2016-Aug-13 03:31N 29°53' E 122°03'0 0.0
2016-Aug-13 02:31N 29°53' E 122°03'0 0.0
2016-Aug-13 01:22N 29°53' E 122°03'0 0.0
2016-Aug-13 00:31N 29°53' E 122°03'0 0.0
2016-Aug-12 23:28N 29°53' E 122°03'0 0.0
2016-Aug-12 22:31N 29°53' E 122°03'0 0.0
2016-Aug-12 21:16N 29°53' E 122°03'0 0.0
2016-Aug-12 19:28N 29°53' E 122°03'0 0.0
2016-Aug-12 17:32N 29°53' E 122°03'4 3.8
2016-Aug-12 16:34N 29°55' E 122°06'9 9.1
2016-Aug-12 15:33N 29°49' E 122°14'9 8.8
2016-Aug-12 14:33N 29°44' E 122°23'7 7.3
2016-Aug-12 13:33N 29°42' E 122°31'14 6.3
2016-Aug-12 11:15N 29°50' E 122°45'4 6.0
2016-Aug-12 10:33N 29°53' E 122°48'  
Track history (hours):
 
Tides and Currents Weather Stations Pressure Air Temp Water Temp Dewpoint Dewpoint Depression Visibility Wind Speed Wind Dir Waves Ship Positions

Albert Maersk

Last reported at 2016-Aug-22 06:32 UTC. Time now 2016-Aug-29 23:30 UTC.
Position N 01°15' E 103°44'.

MMSI: 220259928.

Date/timePositionNaut miles runAvg speedWind from/ knotsBaromVisibWave heightAir tempDewpointWater temp
2016-Aug-22 06:32N 01°15' E 103°44'3 2.4
2016-Aug-22 05:29N 01°16' E 103°46'0 0.0
2016-Aug-22 04:17N 01°16' E 103°46'0 0.0
2016-Aug-22 03:29N 01°16' E 103°46'0 0.0
2016-Aug-21 22:29N 01°16' E 103°46'0 0.0
2016-Aug-21 21:23N 01°16' E 103°46'0 0.0
2016-Aug-21 20:05N 01°16' E 103°46'0 0.0
2016-Aug-21 19:32N 01°16' E 103°46'0 0.0
2016-Aug-21 18:29N 01°16' E 103°46'0 0.0
2016-Aug-21 17:23N 01°16' E 103°46'0 0.0
2016-Aug-21 16:20N 01°16' E 103°46'0 0.0
2016-Aug-21 15:23N 01°16' E 103°46'0 0.0
2016-Aug-21 13:32N 01°16' E 103°46'0 0.0
2016-Aug-21 12:29N 01°16' E 103°46'0 0.0
2016-Aug-21 11:23N 01°16' E 103°46'0 0.0
2016-Aug-21 10:32N 01°16' E 103°46'0 0.0
2016-Aug-21 09:29N 01°16' E 103°46'0 0.0
2016-Aug-21 08:29N 01°16' E 103°46'0 0.0
2016-Aug-21 07:26N 01°16' E 103°46'0 0.0
2016-Aug-21 06:32N 01°16' E 103°46'1 1.2
2016-Aug-21 05:33N 01°15' E 103°47'8 7.8
2016-Aug-21 04:33N 01°14' E 103°54'1010.0
2016-Aug-21 03:33N 01°16' E 104°04'  
2016-Aug-15 23:33N 22°34' E 114°16'0 0.0
2016-Aug-15 22:33N 22°34' E 114°16'0 0.1
2016-Aug-15 21:33N 22°34' E 114°16'0 0.0
2016-Aug-15 20:33N 22°34' E 114°16'9 4.3
2016-Aug-15 18:30N 22°32' E 114°25'22 5.6
2016-Aug-15 14:33N 22°20' E 114°05'1111.1
2016-Aug-15 13:33N 22°24' E 113°53'5 2.5
2016-Aug-15 11:25N 22°29' E 113°52'0 0.0
2016-Aug-15 10:22N 22°29' E 113°52'0 0.0
2016-Aug-15 09:04N 22°29' E 113°52'0 0.0
2016-Aug-15 08:25N 22°29' E 113°52'0 0.0
2016-Aug-15 06:28N 22°29' E 113°52'0 0.0
2016-Aug-15 04:31N 22°29' E 113°52'0 0.0
2016-Aug-15 03:25N 22°29' E 113°52'0 0.0
2016-Aug-15 02:22N 22°29' E 113°52'0 0.0
2016-Aug-15 01:23N 22°29' E 113°52'3 3.5
2016-Aug-15 00:33N 22°26' E 113°53'8 7.4
2016-Aug-14 23:27N 22°21' E 113°59'1011.4
2016-Aug-14 22:34N 22°15' E 114°08'25316.6
2016-Aug-14 07:17N 23°53' E 118°21'1620.1
2016-Aug-14 06:29N 24°04' E 118°34'39518.0
2016-Aug-13 08:33N 29°42' E 122°23'1212.3
2016-Aug-13 07:33N 29°51' E 122°12'9 8.3
2016-Aug-13 06:30N 29°53' E 122°03'0 0.0
2016-Aug-13 04:15N 29°53' E 122°03'0 0.0
2016-Aug-13 03:31N 29°53' E 122°03'0 0.0
2016-Aug-13 02:31N 29°53' E 122°03'0 0.0
2016-Aug-13 01:22N 29°53' E 122°03'0 0.0
2016-Aug-13 00:31N 29°53' E 122°03'0 0.0
2016-Aug-12 23:28N 29°53' E 122°03'0 0.0
2016-Aug-12 22:31N 29°53' E 122°03'0 0.0
2016-Aug-12 21:16N 29°53' E 122°03'0 0.0
2016-Aug-12 19:28N 29°53' E 122°03'0 0.0
2016-Aug-12 17:32N 29°53' E 122°03'4 3.8
2016-Aug-12 16:34N 29°55' E 122°06'9 9.1
2016-Aug-12 15:33N 29°49' E 122°14'9 8.8
2016-Aug-12 14:33N 29°44' E 122°23'7 7.3
2016-Aug-12 13:33N 29°42' E 122°31'14 6.3
2016-Aug-12 11:15N 29°50' E 122°45'4 6.0
2016-Aug-12 10:33N 29°53' E 122°48'  

Dump ship's entire track history